Barstow, Illinois
Current Conditions -  °F | °C
As of 2:27 AM on Friday 24 Oct 2014 (Local Time) from KMLI Reporting Station
Moderate Fog Moderate Fog  
Wind Chill: 41°   Ceiling: 400
Heat Index: 41°   Visibility: 0.5mi
Dew Point: 41°   Wind: 0mph
Humidity: 100%   Direction: NA
Pressure: 30.04"   Gusts: NA
Location:  41.52°N, 90.36°W
Report Text: KMLI 240727Z AUTO 00000KT 1/2SM R09/1800V4500FT FG VV004 05/05 A3004 RMK AO2 VIS 1/4V1 3/4 T00500050
Loading
Personal Weather Stations






























Interactive Weather Map
Tropical Storm Tracking
New forecast layout! Learn more

10-Day Weather Forecast

Advertisements
Track Severe Weather on mobile